Time;durP1;ratioP1;P1;durP2;ratioP2;P2;SDS_P1;SDS_P2;PMS_P1;PMS_P2;Temp;Humidity;BMP_temperature;BMP_pressure;BME280_temperature;BME280_humidity;BME280_pressure;Samples;Min_cycle;Max_cycle;Signal;HPM_P1;HPM_P2
2021/07/30 00:02:12;;;;;;;17.80;12.43;;;;;;;22.23;80.22;99866.29;1682960;84;21219;-59
2021/07/30 00:05:18;;;;;;;20.23;12.68;;;;;;;22.23;80.25;99853.16;1683538;84;21270;-59
2021/07/30 00:08:24;;;;;;;21.27;11.85;;;;;;;22.25;80.17;99846.50;1693464;84;21779;-59
2021/07/30 00:11:31;;;;;;;23.73;13.10;;;;;;;22.23;80.30;99845.91;1696548;83;21334;-59
2021/07/30 00:14:37;;;;;;;19.57;12.63;;;;;;;22.23;80.30;99838.95;1711804;83;21211;-59
2021/07/30 00:17:42;;;;;;;17.52;13.03;;;;;;;22.21;80.35;99838.63;1697590;82;21307;-59
2021/07/30 00:20:46;;;;;;;19.32;12.20;;;;;;;22.18;80.41;99824.41;1706517;84;21366;-59
2021/07/30 00:23:52;;;;;;;21.45;13.20;;;;;;;22.18;80.55;99834.17;1711203;83;21216;-60
2021/07/30 00:26:59;;;;;;;19.85;12.47;;;;;;;22.15;80.69;99834.13;1683580;83;21247;-59
2021/07/30 00:30:05;;;;;;;22.30;12.78;;;;;;;22.13;80.94;99823.81;1708597;82;21745;-59
2021/07/30 00:33:09;;;;;;;28.45;13.00;;;;;;;22.13;80.82;99828.00;1710870;83;21357;-59
2021/07/30 00:36:16;;;;;;;24.07;13.55;;;;;;;22.12;81.00;99833.27;1711063;82;21207;-59
2021/07/30 00:39:23;;;;;;;17.65;11.57;;;;;;;22.11;81.05;99823.23;1688373;83;21192;-59
2021/07/30 00:42:31;;;;;;;24.80;12.82;;;;;;;22.11;81.01;99814.02;1687496;84;21709;-60
2021/07/30 00:45:38;;;;;;;16.32;11.65;;;;;;;22.10;81.04;99806.77;1711632;81;21414;-59
2021/07/30 00:48:44;;;;;;;18.52;11.60;;;;;;;22.08;81.33;99812.60;1728756;82;21351;-60
2021/07/30 00:51:54;;;;;;;19.62;13.28;;;;;;;22.07;81.47;99810.91;1728801;83;21968;-60
2021/07/30 00:55:00;;;;;;;21.87;14.18;;;;;;;22.11;81.66;99808.44;1707504;83;21304;-60
2021/07/30 00:58:10;;;;;;;19.85;13.83;;;;;;;22.12;81.51;99805.38;1728793;83;21375;-59
2021/07/30 01:01:20;;;;;;;19.48;12.18;;;;;;;22.14;81.48;99803.72;1728917;83;21225;-60
2021/07/30 01:04:31;;;;;;;20.32;13.32;;;;;;;22.14;81.47;99803.17;1729114;83;21816;-60
2021/07/30 01:07:38;;;;;;;21.90;13.38;;;;;;;22.11;81.33;99798.67;1728870;83;21221;-60
2021/07/30 01:10:50;;;;;;;21.15;12.82;;;;;;;22.09;81.59;99785.00;1728836;83;21276;-59
2021/07/30 01:13:58;;;;;;;26.48;13.20;;;;;;;22.08;81.62;99795.87;1721371;83;21682;-59
2021/07/30 01:17:09;;;;;;;18.30;13.93;;;;;;;22.05;81.51;99804.77;1721091;83;21216;-59
2021/07/30 01:20:24;;;;;;;22.52;13.03;;;;;;;22.00;81.41;99806.66;1729778;83;21375;-59
2021/07/30 01:23:28;;;;;;;22.95;13.32;;;;;;;21.95;81.49;99809.39;1728856;83;21264;-60
2021/07/30 01:26:35;;;;;;;22.15;13.80;;;;;;;21.90;81.87;99807.94;1728831;83;21390;-59
2021/07/30 01:29:47;;;;;;;25.12;13.50;;;;;;;21.87;81.96;99805.14;1728879;83;21347;-59
2021/07/30 01:32:53;;;;;;;27.22;13.40;;;;;;;21.79;81.90;99800.58;1716942;83;21924;-60
2021/07/30 01:35:58;;;;;;;20.60;13.25;;;;;;;21.71;82.06;99801.02;1734154;83;21291;-59
2021/07/30 01:39:04;;;;;;;24.00;13.53;;;;;;;21.60;82.36;99809.82;1734380;83;21371;-59
2021/07/30 01:42:10;;;;;;;25.52;14.47;;;;;;;21.51;82.65;99810.55;1712932;83;21379;-59
2021/07/30 01:45:16;;;;;;;19.92;14.03;;;;;;;21.39;82.94;99812.64;1734314;83;21378;-59
2021/07/30 01:48:21;;;;;;;22.50;14.65;;;;;;;21.29;83.36;99813.35;1733016;82;21232;-59
2021/07/30 01:51:27;;;;;;;20.68;13.88;;;;;;;21.26;83.64;99819.44;1734313;83;21272;-59
2021/07/30 01:54:32;;;;;;;21.82;13.78;;;;;;;21.23;83.72;99827.47;1734285;83;21331;-60
2021/07/30 01:57:39;;;;;;;23.92;14.03;;;;;;;21.21;83.83;99829.66;1734177;83;21774;-59
2021/07/30 02:00:45;;;;;;;22.52;15.00;;;;;;;21.23;83.96;99838.59;1734304;83;21800;-59
2021/07/30 02:03:51;;;;;;;27.05;16.60;;;;;;;21.26;83.94;99840.86;1719179;82;21208;-59
2021/07/30 02:06:56;;;;;;;33.53;17.15;;;;;;;21.29;83.83;99852.88;1729922;83;21237;-59
2021/07/30 02:10:04;;;;;;;26.27;16.25;;;;;;;21.31;83.69;99857.64;1728853;83;21840;-59
2021/07/30 02:16:37;;;;;;;25.72;16.75;;;;;;;21.35;83.33;99866.61;1728898;83;21410;-59
2021/07/30 02:19:42;;;;;;;27.62;15.68;;;;;;;21.34;83.20;99867.72;1728809;83;21717;-59
2021/07/30 02:22:51;;;;;;;25.02;16.17;;;;;;;21.34;83.11;99874.69;1728988;83;21663;-59
2021/07/30 02:25:56;;;;;;;24.00;16.87;;;;;;;21.35;83.04;99876.90;1728864;83;21304;-59
2021/07/30 02:29:03;;;;;;;24.60;16.37;;;;;;;21.33;83.01;99879.94;1728978;83;21446;-59
2021/07/30 02:32:08;;;;;;;23.50;16.77;;;;;;;21.33;83.04;99891.63;1728873;83;21285;-60
2021/07/30 02:35:15;;;;;;;23.80;18.25;;;;;;;21.34;83.04;99883.04;1710237;83;21268;-60
2021/07/30 02:38:21;;;;;;;27.95;19.85;;;;;;;21.36;83.11;99881.39;1728971;83;21335;-60
2021/07/30 02:41:27;;;;;;;25.82;19.45;;;;;;;21.37;83.15;99882.52;1728916;83;21232;-59
2021/07/30 02:44:32;;;;;;;26.52;19.25;;;;;;;21.38;83.07;99882.80;1728745;83;21378;-59
2021/07/30 02:47:38;;;;;;;32.10;20.52;;;;;;;21.39;83.04;99894.80;1727184;82;21308;-60
2021/07/30 02:50:44;;;;;;;25.32;20.75;;;;;;;21.41;82.97;99896.20;1722659;83;21344;-60
2021/07/30 02:53:50;;;;;;;28.98;19.07;;;;;;;21.43;82.88;99901.52;1715027;83;21224;-59
2021/07/30 02:56:55;;;;;;;28.77;20.30;;;;;;;21.47;82.77;99905.48;1665206;86;21266;-58
2021/07/30 03:00:04;;;;;;;26.02;18.07;;;;;;;21.51;82.66;99913.61;1665650;86;21250;-59
2021/07/30 03:03:11;;;;;;;24.60;18.30;;;;;;;21.55;82.54;99907.83;1665628;86;21751;-59
2021/07/30 03:06:16;;;;;;;27.30;18.10;;;;;;;21.59;82.41;99911.77;1716518;83;21773;-55
2021/07/30 03:09:21;;;;;;;25.43;17.00;;;;;;;21.63;82.30;99915.70;1721207;83;21359;-58
2021/07/30 03:12:26;;;;;;;23.60;16.25;;;;;;;21.68;82.19;99920.81;1721167;83;21260;-58
2021/07/30 03:15:32;;;;;;;27.07;16.37;;;;;;;21.72;82.20;99914.17;1721121;83;21296;-58
2021/07/30 03:18:38;;;;;;;21.02;14.47;;;;;;;21.72;82.34;99920.56;1721098;83;21280;-56
2021/07/30 03:21:43;;;;;;;22.30;14.10;;;;;;;21.76;82.49;99925.96;1704325;83;21394;-57
2021/07/30 03:24:52;;;;;;;17.05;13.22;;;;;;;21.82;82.49;99915.70;1720944;83;21225;-57
2021/07/30 03:28:00;;;;;;;18.75;14.98;;;;;;;21.88;82.43;99923.05;1721170;83;21284;-57
2021/07/30 03:31:08;;;;;;;19.32;13.43;;;;;;;21.94;82.34;99921.45;1721134;83;21224;-57
2021/07/30 03:34:15;;;;;;;18.95;12.98;;;;;;;22.01;82.19;99931.84;1721154;83;21261;-59
2021/07/30 03:37:21;;;;;;;16.48;13.22;;;;;;;22.11;82.15;99933.36;1721171;83;21353;-57
2021/07/30 03:40:26;;;;;;;16.97;13.28;;;;;;;22.19;81.93;99939.02;1721075;83;21225;-56
2021/07/30 03:43:30;;;;;;;22.02;13.30;;;;;;;22.28;81.74;99950.55;1721100;83;21276;-56
2021/07/30 03:46:38;;;;;;;17.27;12.93;;;;;;;22.36;81.53;99949.52;1713203;83;21233;-56
2021/07/30 03:49:43;;;;;;;15.80;13.20;;;;;;;22.47;81.26;99946.30;1725267;82;21618;-56
2021/07/30 03:52:48;;;;;;;16.07;12.45;;;;;;;22.58;80.89;99952.30;1732543;82;21383;-56
2021/07/30 03:55:56;;;;;;;16.70;12.78;;;;;;;22.69;80.50;99954.89;1730555;82;21232;-57
2021/07/30 03:59:03;;;;;;;17.85;12.30;;;;;;;22.77;80.11;99953.02;1728894;83;21395;-58
2021/07/30 04:02:08;;;;;;;19.40;11.48;;;;;;;22.87;79.82;99953.66;1728941;83;21212;-56
2021/07/30 04:05:15;;;;;;;15.63;11.38;;;;;;;22.98;79.42;99965.20;1728966;83;21359;-56
2021/07/30 04:08:21;;;;;;;18.85;12.10;;;;;;;23.06;79.08;99967.50;1728782;83;21963;-56
2021/07/30 04:11:27;;;;;;;14.07;11.22;;;;;;;23.18;78.67;99964.81;1728793;83;21189;-57
2021/07/30 04:14:33;;;;;;;13.18;10.55;;;;;;;23.34;78.33;99967.22;1728714;83;21896;-56
2021/07/30 04:17:40;;;;;;;16.73;10.78;;;;;;;23.50;77.80;99971.22;1728877;83;21635;-56
2021/07/30 04:20:50;;;;;;;13.32;10.10;;;;;;;23.67;77.20;99985.03;1728735;83;21450;-57
2021/07/30 04:23:58;;;;;;;15.58;9.75;;;;;;;23.78;76.50;99981.72;1728862;82;21347;-58
2021/07/30 04:27:09;;;;;;;12.55;9.03;;;;;;;23.84;75.87;99991.27;1728690;83;21375;-57
2021/07/30 04:30:16;;;;;;;15.35;9.25;;;;;;;23.84;75.23;99978.69;1728736;83;21205;-57
2021/07/30 04:33:22;;;;;;;12.93;8.83;;;;;;;23.79;74.36;99962.42;1728962;83;21213;-57
2021/07/30 04:36:28;;;;;;;13.48;8.98;;;;;;;23.71;73.92;99955.41;1728654;83;21375;-56
2021/07/30 04:39:34;;;;;;;11.55;8.08;;;;;;;23.64;73.66;99968.22;1684544;85;21371;-55
2021/07/30 04:42:41;;;;;;;16.62;9.05;;;;;;;23.61;73.30;99957.59;1654128;85;21351;-56
2021/07/30 04:45:49;;;;;;;14.58;8.13;;;;;;;23.58;73.29;99934.92;1723595;82;21370;-56
2021/07/30 04:48:59;;;;;;;9.38;7.97;;;;;;;23.61;72.92;99931.58;1738814;82;21188;-56
2021/07/30 04:52:04;;;;;;;14.53;8.38;;;;;;;23.67;72.56;99922.69;1739989;81;21340;-56
2021/07/30 04:55:11;;;;;;;15.15;8.35;;;;;;;23.77;72.18;99916.57;1741866;81;21227;-56
2021/07/30 04:58:17;;;;;;;19.85;8.93;;;;;;;23.90;71.66;99927.25;1723925;81;21243;-56
2021/07/30 05:01:24;;;;;;;12.63;8.55;;;;;;;24.03;71.50;99938.52;1708248;82;21241;-56
2021/07/30 05:04:31;;;;;;;14.90;10.68;;;;;;;24.11;70.91;99936.05;1654827;82;21341;-58
2021/07/30 05:07:39;;;;;;;16.20;9.50;;;;;;;24.19;70.32;99940.25;1649154;86;21227;-57
2021/07/30 05:10:44;;;;;;;14.98;9.48;;;;;;;24.28;69.78;99937.20;1719707;83;21228;-56
2021/07/30 05:13:53;;;;;;;12.37;8.50;;;;;;;24.32;69.68;99941.14;1708105;83;21201;-57
2021/07/30 05:17:01;;;;;;;12.93;8.38;;;;;;;24.37;69.64;99947.58;1680930;82;21284;-57
2021/07/30 05:20:10;;;;;;;11.10;7.92;;;;;;;24.40;69.35;99947.05;1696237;82;21742;-57
2021/07/30 05:23:16;;;;;;;12.07;8.03;;;;;;;24.39;69.41;99950.09;1701577;82;21228;-62
2021/07/30 05:26:24;;;;;;;10.98;7.10;;;;;;;24.38;69.24;99952.07;1720622;82;21244;-59
2021/07/30 05:29:30;;;;;;;10.75;7.30;;;;;;;24.39;68.92;99951.49;1714544;81;21224;-58
2021/07/30 05:32:36;;;;;;;8.58;6.50;;;;;;;24.44;68.87;99950.11;1708746;82;21217;-59
2021/07/30 05:35:42;;;;;;;12.40;7.40;;;;;;;24.47;68.37;99947.61;1691992;84;21221;-58
2021/07/30 05:38:49;;;;;;;12.58;8.23;;;;;;;24.51;68.29;99952.09;1688174;84;21214;-58
2021/07/30 05:41:55;;;;;;;10.18;7.97;;;;;;;24.57;68.18;99957.43;1693483;82;21233;-59
2021/07/30 05:45:03;;;;;;;12.80;8.45;;;;;;;24.63;68.40;99954.91;1677387;83;21232;-58
2021/07/30 05:48:09;;;;;;;14.13;9.28;;;;;;;24.64;68.13;99953.78;1675836;85;21379;-58
2021/07/30 05:51:17;;;;;;;12.65;8.40;;;;;;;24.64;68.78;99950.98;1667284;82;21260;-58
2021/07/30 05:54:25;;;;;;;10.80;8.58;;;;;;;24.68;69.41;99939.56;1684145;85;21204;-59
2021/07/30 05:57:37;;;;;;;14.25;9.65;;;;;;;24.74;69.54;99951.04;1658253;84;21728;-57
2021/07/30 06:00:45;;;;;;;17.50;9.83;;;;;;;24.77;69.40;99948.23;1668521;85;21941;-59
2021/07/30 06:03:52;;;;;;;20.32;8.80;;;;;;;24.74;69.74;99953.84;1666609;85;21267;-57
2021/07/30 06:07:00;;;;;;;12.73;8.60;;;;;;;24.75;69.97;99951.89;1652063;86;21314;-57
2021/07/30 06:10:08;;;;;;;10.10;8.25;;;;;;;24.80;69.72;99963.10;1636321;86;21255;-59
2021/07/30 06:13:19;;;;;;;10.25;8.53;;;;;;;24.86;69.37;99970.37;1663300;86;21216;-57
2021/07/30 06:16:25;;;;;;;14.35;8.55;;;;;;;24.91;69.22;99965.61;1661118;85;21358;-57
2021/07/30 06:19:32;;;;;;;16.30;10.28;;;;;;;24.94;69.52;99967.84;1665271;86;21254;-58
2021/07/30 06:22:38;;;;;;;15.25;11.55;;;;;;;24.95;70.08;99968.14;1665383;86;21223;-54
2021/07/30 06:25:44;;;;;;;16.77;11.85;;;;;;;24.96;70.49;99972.62;1660854;85;21888;-55
2021/07/30 06:28:51;;;;;;;13.45;10.98;;;;;;;24.98;70.74;99970.93;1664140;86;21790;-53
2021/07/30 06:31:56;;;;;;;13.75;11.43;;;;;;;25.07;71.22;99971.23;1646451;87;21332;-54
2021/07/30 06:35:03;;;;;;;14.73;10.78;;;;;;;25.15;70.89;99972.89;1665995;86;21991;-54
2021/07/30 06:38:09;;;;;;;17.30;11.03;;;;;;;25.22;69.84;99976.26;1666041;86;21743;-57
2021/07/30 06:41:20;;;;;;;14.65;10.90;;;;;;;25.26;69.62;99982.14;1668091;85;21357;-58
2021/07/30 06:44:27;;;;;;;15.35;10.55;;;;;;;25.32;69.67;99972.61;1623922;87;21245;-57
2021/07/30 06:47:33;;;;;;;13.62;11.28;;;;;;;25.43;69.65;99977.11;1621049;88;21350;-57
2021/07/30 06:50:41;;;;;;;13.83;10.25;;;;;;;25.59;69.28;99968.95;1640168;87;21759;-58
2021/07/30 06:53:48;;;;;;;12.35;10.05;;;;;;;25.68;68.38;99971.44;1646803;83;21253;-59
2021/07/30 06:56:58;;;;;;;13.30;10.67;;;;;;;25.76;68.23;99976.47;1652591;85;21757;-57
2021/07/30 07:00:04;;;;;;;11.85;9.88;;;;;;;25.85;67.52;99971.39;1657771;84;21825;-58
2021/07/30 07:03:12;;;;;;;14.00;8.98;;;;;;;25.97;67.40;99973.89;1666782;86;21270;-59
2021/07/30 07:06:24;;;;;;;12.60;10.45;;;;;;;26.06;66.31;99966.58;1670558;84;21407;-58
2021/07/30 07:09:30;;;;;;;12.47;11.08;;;;;;;26.10;66.11;99964.89;1667893;84;21201;-59
2021/07/30 07:12:37;;;;;;;15.63;10.25;;;;;;;26.13;66.64;99967.94;1670736;84;21758;-57
2021/07/30 07:15:46;;;;;;;13.55;11.15;;;;;;;26.18;66.42;99957.25;1667128;85;21281;-59
2021/07/30 07:18:55;;;;;;;15.03;11.00;;;;;;;26.25;66.15;99962.00;1674596;85;21269;-58
2021/07/30 07:22:02;;;;;;;15.55;10.45;;;;;;;26.28;65.92;99958.61;1675245;85;21970;-59
2021/07/30 07:25:10;;;;;;;12.35;10.40;;;;;;;26.35;65.79;99963.36;1675782;85;21528;-57
2021/07/30 07:28:17;;;;;;;12.58;10.00;;;;;;;26.44;64.69;99968.63;1675827;85;21360;-58
2021/07/30 07:31:23;;;;;;;18.25;10.82;;;;;;;26.52;63.96;99957.34;1675182;85;21427;-58
2021/07/30 07:34:32;;;;;;;12.05;9.65;;;;;;;26.61;63.96;99963.47;1659774;85;21781;-59
2021/07/30 07:37:37;;;;;;;12.75;10.63;;;;;;;26.72;63.99;99954.45;1694832;84;21216;-58
2021/07/30 07:40:42;;;;;;;17.95;10.68;;;;;;;26.85;63.54;99951.81;1692599;82;21228;-59
2021/07/30 07:43:51;;;;;;;14.60;10.08;;;;;;;26.95;62.43;99946.68;1696817;84;21363;-58
2021/07/30 07:46:59;;;;;;;12.98;10.20;;;;;;;26.98;63.20;99946.94;1701488;82;21454;-59
2021/07/30 07:50:06;;;;;;;13.00;10.35;;;;;;;27.02;63.26;99950.83;1687971;84;21363;-59
2021/07/30 07:53:23;;;;;;;12.37;10.15;;;;;;;27.04;62.82;99947.72;1678017;83;21255;-60
2021/07/30 07:56:30;;;;;;;14.35;10.15;;;;;;;27.08;62.14;99953.89;1724929;83;21220;-58
2021/07/30 07:59:38;;;;;;;13.83;10.00;;;;;;;27.11;61.25;99951.89;1724366;83;21297;-61
2021/07/30 08:02:47;;;;;;;11.35;9.93;;;;;;;27.10;61.00;99941.77;1687778;83;21204;-57
2021/07/30 08:06:07;;;;;;;17.07;9.88;;;;;;;27.16;61.00;99945.38;1720609;82;21868;-60
2021/07/30 08:09:14;;;;;;;15.32;10.25;;;;;;;27.20;60.53;99945.90;1656959;85;21618;-61
2021/07/30 08:12:20;;;;;;;12.98;10.60;;;;;;;27.29;60.16;99959.61;1626581;88;21744;-58
2021/07/30 08:15:26;;;;;;;12.05;10.15;;;;;;;27.36;60.17;99948.02;1622903;87;21831;-58
2021/07/30 08:18:34;;;;;;;11.18;9.90;;;;;;;27.40;59.82;99947.13;1653228;86;21253;-59
2021/07/30 08:21:40;;;;;;;13.75;10.08;;;;;;;27.50;59.40;99940.00;1732380;82;21272;-58
2021/07/30 08:24:46;;;;;;;10.35;8.33;;;;;;;27.62;59.35;99948.86;1729769;82;21714;-59
2021/07/30 08:27:54;;;;;;;9.33;8.05;;;;;;;27.72;57.03;99950.16;1720678;82;22065;-58
2021/07/30 08:31:02;;;;;;;12.05;8.25;;;;;;;27.78;56.24;99947.55;1725242;83;21373;-59
2021/07/30 08:34:09;;;;;;;14.28;8.80;;;;;;;27.86;55.96;99951.68;1721888;83;21339;-60
2021/07/30 08:37:17;;;;;;;9.88;8.28;;;;;;;27.99;54.85;99953.00;1724890;83;21354;-56
2021/07/30 08:40:24;;;;;;;11.25;8.45;;;;;;;28.10;54.83;99959.58;1728141;83;21386;-60
2021/07/30 08:43:30;;;;;;;9.23;7.12;;;;;;;28.30;55.11;99959.34;1726258;83;21245;-59
2021/07/30 08:46:35;;;;;;;11.10;7.47;;;;;;;28.60;54.17;99953.87;1708058;82;21442;-58
2021/07/30 08:49:43;;;;;;;9.98;8.10;;;;;;;28.89;51.74;99949.73;1661591;85;21221;-59
2021/07/30 08:52:51;;;;;;;9.63;8.30;;;;;;;29.09;51.29;99959.88;1644857;86;21213;-61
2021/07/30 08:56:00;;;;;;;8.80;7.70;;;;;;;29.21;51.85;99958.81;1707747;81;21401;-60
2021/07/30 08:59:06;;;;;;;9.85;7.70;;;;;;;29.31;51.66;99955.82;1674600;84;21265;-60
2021/07/30 09:02:12;;;;;;;8.40;6.90;;;;;;;29.40;51.89;99954.55;1727423;81;21285;-60
2021/07/30 09:05:42;;;;;;;8.45;7.00;;;;;;;29.49;51.20;99963.40;1708230;82;21791;-60
2021/07/30 09:08:55;;;;;;;7.95;7.12;;;;;;;29.55;51.16;99959.89;1702314;83;21904;-60
2021/07/30 09:12:03;;;;;;;7.87;7.08;;;;;;;29.62;50.54;99958.33;1673118;84;21213;-60
2021/07/30 09:15:15;;;;;;;11.00;7.60;;;;;;;29.69;50.76;99943.28;1648291;87;21288;-60
2021/07/30 09:18:42;;;;;;;8.18;6.40;;;;;;;29.81;50.65;99945.60;1626435;87;21219;-58
2021/07/30 09:21:46;;;;;;;7.55;6.47;;;;;;;29.82;50.03;99949.52;1641146;87;21207;-58
2021/07/30 09:24:52;;;;;;;7.53;5.80;;;;;;;29.81;49.96;99947.02;1651630;84;21915;-59
2021/07/30 09:27:58;;;;;;;10.50;6.08;;;;;;;29.84;49.66;99954.29;1647446;84;21404;-61
2021/07/30 09:31:08;;;;;;;8.68;6.67;;;;;;;29.92;49.22;99955.54;1626570;87;21322;-58
2021/07/30 09:34:23;;;;;;;7.62;6.53;;;;;;;29.95;48.84;99955.76;1641087;87;21234;-60
2021/07/30 09:37:33;;;;;;;7.85;6.45;;;;;;;29.94;48.72;99948.41;1641346;87;21393;-60
2021/07/30 09:40:40;;;;;;;9.68;7.47;;;;;;;29.92;49.45;99956.95;1640962;87;21509;-59
2021/07/30 09:43:50;;;;;;;9.08;6.90;;;;;;;29.91;50.18;99963.16;1641227;84;21430;-59
2021/07/30 09:47:11;;;;;;;9.13;7.00;;;;;;;29.92;50.20;99964.83;1643212;86;21273;-60
2021/07/30 09:50:22;;;;;;;8.28;7.00;;;;;;;29.85;49.96;99960.19;1638600;87;21377;-60
2021/07/30 09:53:25;;;;;;;8.73;6.92;;;;;;;29.81;50.18;99957.70;1656806;86;21775;-60
2021/07/30 09:56:34;;;;;;;8.28;6.55;;;;;;;29.86;49.64;99966.67;1666015;84;21795;-59
2021/07/30 09:59:43;;;;;;;6.85;6.12;;;;;;;29.89;48.99;99971.10;1644916;84;21278;-61
2021/07/30 10:02:53;;;;;;;7.62;6.35;;;;;;;29.94;49.03;99971.00;1635084;87;21203;-61
2021/07/30 10:05:59;;;;;;;7.85;6.08;;;;;;;30.03;48.98;99969.11;1643515;84;21302;-60
2021/07/30 10:09:06;;;;;;;11.85;7.05;;;;;;;30.13;48.59;99970.89;1636014;87;21437;-60
2021/07/30 10:12:15;;;;;;;8.63;7.05;;;;;;;30.20;48.25;99973.58;1648779;85;21251;-60
2021/07/30 10:15:20;;;;;;;6.60;5.92;;;;;;;30.14;48.17;99968.34;1668213;85;21881;-60
2021/07/30 10:18:30;;;;;;;7.25;6.47;;;;;;;30.13;48.61;99966.09;1665719;85;21742;-61
2021/07/30 10:21:39;;;;;;;9.15;6.42;;;;;;;30.13;48.23;99960.44;1683073;84;21340;-60
2021/07/30 10:24:52;;;;;;;6.60;5.53;;;;;;;30.23;46.82;99950.95;1685387;84;21857;-60
2021/07/30 10:28:00;;;;;;;;;;;;;;;30.23;46.82;99950.95;1651167;84;21235;-60
2021/07/30 10:31:12;;;;;;;6.60;5.70;;;;;;;30.23;46.71;99951.80;1652371;85;20220;-59
2021/07/30 10:34:20;;;;;;;7.83;5.95;;;;;;;30.28;46.39;99943.22;1663106;86;21211;-60
2021/07/30 10:37:45;;;;;;;10.28;6.65;;;;;;;30.38;46.80;99937.91;1665290;86;21760;-58
2021/07/30 10:41:06;;;;;;;8.08;5.62;;;;;;;30.43;46.09;99943.42;1647826;84;21270;-58
2021/07/30 10:44:13;;;;;;;6.85;5.67;;;;;;;30.34;46.83;99934.88;1660899;84;21953;-60
2021/07/30 10:47:30;;;;;;;8.43;6.03;;;;;;;30.38;46.60;99940.14;1642543;86;21806;-59
2021/07/30 10:51:01;;;;;;;7.60;5.62;;;;;;;30.31;46.35;99935.52;1637005;86;21378;-59
2021/07/30 10:54:13;;;;;;;7.00;6.03;;;;;;;30.25;46.22;99928.31;1662916;85;21373;-57
2021/07/30 10:57:18;;;;;;;7.10;5.58;;;;;;;30.36;46.51;99931.73;1675617;82;21183;-58
2021/07/30 11:00:25;;;;;;;6.10;5.00;;;;;;;30.39;45.96;99933.36;1672469;84;21275;-59
2021/07/30 11:03:31;;;;;;;6.92;5.90;;;;;;;30.29;45.65;99921.43;1677205;85;21287;-59
2021/07/30 11:06:43;;;;;;;5.80;4.62;;;;;;;30.22;46.18;99928.91;1680498;85;21267;-61
2021/07/30 11:09:50;;;;;;;5.97;5.15;;;;;;;30.28;45.86;99919.77;1661008;84;21799;-60
2021/07/30 11:12:55;;;;;;;7.37;4.72;;;;;;;30.48;45.80;99917.88;1641924;87;21229;-61
2021/07/30 11:16:00;;;;;;;8.98;5.53;;;;;;;30.68;42.99;99916.58;1627987;87;21288;-59
2021/07/30 11:19:09;;;;;;;8.45;5.40;;;;;;;30.81;43.21;99918.56;1661841;84;21682;-59
2021/07/30 11:22:18;;;;;;;8.38;4.97;;;;;;;30.92;43.79;99899.59;1665967;84;22104;-58
2021/07/30 11:25:26;;;;;;;7.75;5.47;;;;;;;30.96;43.59;99901.20;1660431;86;21280;-60
2021/07/30 11:28:32;;;;;;;11.08;5.78;;;;;;;30.90;42.75;99898.25;1650935;86;21807;-60
2021/07/30 11:31:43;;;;;;;6.12;5.50;;;;;;;30.77;43.72;99892.06;1653549;85;21229;-57
2021/07/30 11:34:55;;;;;;;6.15;5.28;;;;;;;30.82;43.54;99887.70;1668178;86;21793;-60
2021/07/30 11:38:09;;;;;;;6.28;5.25;;;;;;;30.92;42.61;99881.81;1650457;84;22141;-59
2021/07/30 11:41:20;;;;;;;6.55;5.30;;;;;;;30.99;42.99;99885.84;1668617;86;21888;-60
2021/07/30 11:44:29;;;;;;;6.87;5.90;;;;;;;31.05;42.35;99881.72;1670324;84;21889;-61
2021/07/30 11:47:39;;;;;;;6.50;5.65;;;;;;;31.18;42.39;99873.73;1662158;84;21245;-60
2021/07/30 11:50:45;;;;;;;6.35;5.70;;;;;;;31.31;42.74;99881.34;1686342;84;21281;-59
2021/07/30 11:53:59;;;;;;;7.00;5.70;;;;;;;31.34;42.26;99878.44;1680384;83;21727;-62
2021/07/30 11:57:06;;;;;;;8.60;5.83;;;;;;;31.33;42.29;99869.70;1683504;84;21193;-62
2021/07/30 12:00:16;;;;;;;6.58;5.33;;;;;;;31.35;42.05;99873.05;1697725;81;21193;-61
2021/07/30 12:03:28;;;;;;;6.30;5.70;;;;;;;31.26;41.47;99867.88;1725500;80;21374;-59
2021/07/30 12:06:40;;;;;;;7.80;5.12;;;;;;;31.18;41.29;99877.14;1752172;81;21213;-60
2021/07/30 12:09:46;;;;;;;12.40;8.40;;;;;;;31.15;40.57;99873.55;1739535;80;21204;-60
2021/07/30 12:12:56;;;;;;;8.70;6.00;;;;;;;31.11;39.90;99879.61;1742055;81;21819;-61
2021/07/30 12:16:04;;;;;;;6.90;4.70;;;;;;;31.01;39.69;99860.91;1733511;81;21868;-62
2021/07/30 12:19:11;;;;;;;6.90;5.45;;;;;;;30.95;39.60;99864.20;1705352;81;21722;-60
2021/07/30 12:22:21;;;;;;;7.67;4.90;;;;;;;30.90;39.10;99861.49;1736966;81;21387;-60
2021/07/30 12:25:56;;;;;;;5.87;4.70;;;;;;;30.86;39.22;99867.55;1730431;82;21337;-59
2021/07/30 12:29:03;;;;;;;7.10;4.42;;;;;;;30.86;39.34;99850.58;1735029;81;21248;-60
2021/07/30 12:32:27;;;;;;;9.45;5.92;;;;;;;30.89;39.84;99857.00;1726552;81;21189;-59
2021/07/30 12:35:47;;;;;;;6.70;5.35;;;;;;;30.91;39.52;99870.22;1732982;81;21361;-61
2021/07/30 12:39:06;;;;;;;6.00;5.08;;;;;;;30.82;38.95;99863.67;1728664;82;21202;-59
2021/07/30 12:42:12;;;;;;;5.35;4.47;;;;;;;30.74;37.88;99851.13;1718807;82;21205;-59
2021/07/30 12:45:21;;;;;;;6.55;4.87;;;;;;;30.64;38.42;99855.05;1702518;82;21820;-60
2021/07/30 12:48:30;;;;;;;4.83;4.17;;;;;;;30.62;38.33;99853.67;1719743;82;21234;-61
2021/07/30 12:51:35;;;;;;;6.12;4.62;;;;;;;30.60;36.23;99857.42;1720778;82;21211;-59
2021/07/30 12:54:43;;;;;;;6.83;4.87;;;;;;;30.55;37.01;99850.48;1718901;81;21248;-61
2021/07/30 12:58:03;;;;;;;7.28;5.75;;;;;;;30.52;37.73;99845.47;1720140;82;21248;-61
2021/07/30 13:01:18;;;;;;;8.00;5.67;;;;;;;30.57;38.25;99850.40;1733164;81;21740;-60
2021/07/30 13:04:26;;;;;;;6.58;5.70;;;;;;;30.57;38.80;99847.57;1726184;83;21212;-61
2021/07/30 13:07:32;;;;;;;7.30;5.37;;;;;;;30.58;38.93;99836.55;1738840;81;21185;-61
2021/07/30 13:10:42;;;;;;;7.58;5.80;;;;;;;30.58;38.93;99836.55;1704376;82;21197;-58
2021/07/30 13:13:47;;;;;;;6.85;5.67;;;;;;;30.61;39.21;99847.20;1700610;83;21221;-59
2021/07/30 13:16:54;;;;;;;10.03;5.95;;;;;;;30.63;39.71;99851.13;1696149;84;21885;-59
2021/07/30 13:20:01;;;;;;;8.05;6.37;;;;;;;30.58;38.90;99834.29;1696014;84;21384;-60
2021/07/30 13:23:08;;;;;;;7.47;5.83;;;;;;;30.51;38.17;99834.73;1695985;84;21360;-58
2021/07/30 13:26:15;;;;;;;6.45;5.45;;;;;;;30.51;38.17;99834.73;1696105;84;21222;-58
2021/07/30 13:29:21;;;;;;;9.10;5.72;;;;;;;30.49;37.66;99847.52;1696790;84;21257;-57
2021/07/30 13:32:30;;;;;;;6.42;5.80;;;;;;;30.42;37.98;99840.89;1696234;84;21391;-59
2021/07/30 13:40:08;;;;;;;9.65;5.78;;;;;;;30.40;38.98;99843.77;1736174;82;21351;-59
2021/07/30 13:43:17;;;;;;;6.45;5.15;;;;;;;30.44;39.17;99840.01;1686462;85;21359;-60
2021/07/30 13:46:26;;;;;;;6.20;5.15;;;;;;;30.43;38.96;99842.56;1668793;84;21384;-61
2021/07/30 13:49:35;;;;;;;9.25;5.72;;;;;;;30.44;38.84;99834.36;1671100;85;21361;-60
2021/07/30 13:52:40;;;;;;;6.90;5.50;;;;;;;30.54;39.43;99845.39;1669708;86;21218;-59
2021/07/30 13:55:54;;;;;;;9.43;5.55;;;;;;;30.61;39.57;99850.03;1670504;85;21392;-60
2021/07/30 13:59:02;;;;;;;7.03;5.65;;;;;;;30.62;39.71;99838.12;1653352;84;21361;-58
2021/07/30 14:02:11;;;;;;;8.65;5.35;;;;;;;30.73;39.20;99835.33;1693966;80;21263;-60
2021/07/30 14:05:18;;;;;;;10.28;5.28;;;;;;;30.75;39.60;99836.42;1710030;83;21205;-59
2021/07/30 14:08:27;;;;;;;5.65;4.83;;;;;;;30.74;39.67;99841.23;1706208;83;21559;-60
2021/07/30 14:11:32;;;;;;;5.90;5.30;;;;;;;30.58;38.96;99839.38;1707038;83;21205;-60
2021/07/30 14:14:40;;;;;;;8.08;4.70;;;;;;;30.58;38.96;99839.38;1710087;83;21408;-59
2021/07/30 14:17:47;;;;;;;6.25;5.00;;;;;;;30.45;38.94;99840.25;1709632;82;21738;-59
2021/07/30 14:20:53;;;;;;;5.42;4.62;;;;;;;30.39;39.18;99842.95;1715594;82;21748;-58
2021/07/30 14:23:58;;;;;;;9.53;5.50;;;;;;;30.39;39.70;99842.95;1716315;83;21872;-59
2021/07/30 14:27:03;;;;;;;5.12;4.62;;;;;;;30.36;39.87;99839.36;1715547;83;21217;-61
2021/07/30 14:30:10;;;;;;;7.45;4.97;;;;;;;30.32;39.94;99831.25;1712250;82;21244;-59
2021/07/30 14:33:15;;;;;;;6.42;5.72;;;;;;;30.32;39.81;99836.89;1715303;83;21185;-58
2021/07/30 14:36:21;;;;;;;8.03;5.28;;;;;;;30.36;40.13;99833.70;1715216;83;21216;-60
2021/07/30 14:39:30;;;;;;;6.87;5.50;;;;;;;30.28;40.43;99830.23;1715723;83;21209;-60
2021/07/30 14:42:36;;;;;;;6.60;5.37;;;;;;;30.28;40.43;99830.23;1716280;83;21359;-59